METAR Data

Data at: 2134 UTC 01 Dec 2021

METAR for:KBVY (Beverly Muni, MA, US)
Text:KBVY 012053Z 26011KT 10SM CLR 06/M03 A3009 RMK AO2 SLP188 T00611033 51015
Temperature: 6.1°C ( 43°F)
Dewpoint: -3.3°C ( 26°F) [RH = 51%]
Pressure (altimeter):30.09 inches Hg (1019.0 mb) [Sea level pressure: 1018.8 mb]
Winds:from the W (260 degrees) at 13 MPH (11 knots; 5.7 m/s)
Visibility:10 or more sm (16+ km)
Ceiling:at least 12,000 feet AGL
Clouds:sky clear below 12,000 feet AGL